.
WxDataArchive / Data Records for 2009-05-11
2009-05-10 May 2009 2009-05-12

Data Records for Monday, 11 May 2009

Time	Temp	Chill	HIndex	Humid	Dewpt	 Wind 	HiWind	WindDir	Rain 	Barom 
-----	----	-----	------	-----	-----	------	------	-------	-----	----- 
00:00	49.6	49.6	49.6	93	47.7	0	0	---	0.00	30.104 
00:05	49.5	49.5	49.5	94	47.8	0	0	---	0.00	30.104 
00:10	49.4	49.4	49.4	94	47.7	0	0	---	0.00	30.104 
00:15	49.2	49.2	49.2	94	47.5	0	0	---	0.00	30.101 
00:20	48.9	48.9	48.9	94	47.2	0	0	---	0.00	30.101 
00:25	48.9	48.9	48.9	94	47.2	0	0	---	0.00	30.101 
00:30	48.9	48.9	48.9	94	47.2	0	1	270	0.00	30.106 
00:35	48.9	48.9	48.9	94	47.2	0	1	270	0.00	30.106 
00:40	48.8	48.8	48.8	94	47.1	0	1	270	0.00	30.106 
00:45	48.8	48.8	48.8	94	47.1	0	0	---	0.00	30.106 
00:50	48.6	48.6	48.6	94	47.0	0	1	270	0.00	30.106 
00:55	48.6	48.6	48.6	94	47.0	0	0	---	0.00	30.106 
01:00	48.8	48.8	48.8	95	47.4	0	0	---	0.00	30.106 
01:05	48.6	48.6	48.6	95	47.2	0	0	---	0.00	30.106 
01:10	48.6	48.6	48.6	95	47.2	0	0	---	0.00	30.106 
01:15	48.5	48.5	48.5	95	47.1	0	0	---	0.00	30.106 
01:20	48.3	48.3	48.3	95	46.9	0	0	---	0.00	30.106 
01:25	48.3	48.3	48.3	95	46.9	0	0	---	0.00	30.106 
01:30	48.2	48.2	48.2	95	46.8	0	0	---	0.00	30.107 
01:35	48.0	48.0	48.0	95	46.6	0	0	---	0.00	30.107 
01:40	48.0	48.0	48.0	95	46.6	0	0	---	0.00	30.107 
01:45	47.7	47.7	47.7	95	46.3	0	0	---	0.00	30.106 
01:50	47.6	47.6	47.6	95	46.2	0	0	---	0.00	30.106 
01:55	47.4	47.4	47.4	95	46.0	0	0	---	0.00	30.106 
02:00	47.3	47.3	47.3	95	45.9	0	0	---	0.00	30.106 
02:05	47.1	47.1	47.1	95	45.7	0	0	---	0.00	30.106 
02:10	47.0	47.0	47.0	95	45.6	0	0	---	0.00	30.106 
02:15	46.8	46.8	46.8	95	45.4	0	0	---	0.00	30.101 
02:20	46.8	46.8	46.8	95	45.4	0	0	---	0.00	30.101 
02:25	46.7	46.7	46.7	95	45.3	0	0	---	0.00	30.101 
02:30	46.5	46.5	46.5	95	45.1	0	0	---	0.00	30.105 
02:35	46.5	46.5	46.5	95	45.1	0	0	---	0.00	30.105 
02:40	46.5	46.5	46.5	95	45.1	0	0	---	0.00	30.105 
02:45	46.5	46.5	46.5	95	45.1	0	0	---	0.00	30.106 
02:50	46.4	46.4	46.4	95	45.0	0	0	---	0.00	30.106 
02:55	46.5	46.5	46.5	95	45.1	0	0	---	0.00	30.106 
03:00	46.5	46.5	46.5	95	45.1	0	0	---	0.00	30.111 
03:05	46.5	46.5	46.5	95	45.1	0	0	---	0.00	30.111 
03:10	46.4	46.4	46.4	95	45.0	0	0	---	0.00	30.111 
03:15	46.2	46.2	46.2	95	44.8	0	0	---	0.00	30.111 
03:20	46.1	46.1	46.1	95	44.7	0	0	---	0.00	30.111 
03:25	46.2	46.2	46.2	96	45.1	0	0	---	0.00	30.111 
03:30	46.4	46.4	46.4	96	45.3	0	0	---	0.00	30.116 
03:35	46.5	46.5	46.5	96	45.4	0	0	---	0.00	30.116 
03:40	46.5	46.5	46.5	96	45.4	0	0	---	0.00	30.116 
03:45	46.7	46.7	46.7	96	45.6	0	0	---	0.00	30.114 
03:50	46.8	46.8	46.8	96	45.7	0	0	---	0.00	30.114 
03:55	46.8	46.8	46.8	96	45.7	0	1	270	0.00	30.114 
04:00	46.8	46.8	46.8	96	45.7	0	1	270	0.00	30.116 
04:05	46.7	46.7	46.7	96	45.6	0	2	292	0.00	30.116 
04:10	46.5	46.5	46.5	96	45.4	0	1	292	0.00	30.116 
04:15	46.4	46.4	46.4	96	45.3	0	1	292	0.00	30.122 
04:20	46.2	46.2	46.2	96	45.1	0	2	292	0.00	30.122 
04:25	46.1	46.1	46.1	96	45.0	0	1	292	0.00	30.122 
04:30	46.0	46.0	46.0	96	44.9	0	0	---	0.00	30.125 
04:35	45.8	45.8	45.8	96	44.7	0	0	---	0.00	30.125 
04:40	45.7	45.7	45.7	96	44.6	0	1	292	0.00	30.125 
04:45	45.5	45.5	45.5	96	44.4	0	1	292	0.00	30.126 
04:50	45.5	45.5	45.5	96	44.4	0	0	---	0.00	30.126 
04:55	45.4	45.4	45.4	96	44.3	0	0	---	0.00	30.126 
05:00	45.2	45.2	45.2	96	44.1	0	0	---	0.00	30.127 
05:05	45.1	45.1	45.1	95	43.8	0	0	---	0.00	30.127 
05:10	45.1	45.1	45.1	95	43.8	0	0	---	0.00	30.127 
05:15	44.9	44.9	44.9	95	43.6	0	0	---	0.00	30.135 
05:20	44.8	44.8	44.8	95	43.5	0	1	292	0.00	30.135 
05:25	44.6	44.6	44.6	95	43.3	0	0	---	0.00	30.135 
05:30	44.5	44.5	44.5	95	43.2	0	0	---	0.00	30.138 
05:35	44.5	44.5	44.5	95	43.2	0	1	292	0.00	30.138 
05:40	44.3	44.3	44.3	95	43.0	0	0	---	0.00	30.138 
05:45	44.2	44.2	44.2	95	42.9	0	0	---	0.00	30.137 
05:50	44.2	44.2	44.2	95	42.9	0	0	---	0.00	30.137 
05:55	44.1	44.1	44.1	95	42.8	0	0	---	0.00	30.137 
06:00	44.1	44.1	44.1	95	42.8	0	0	---	0.00	30.139 
06:05	43.9	43.9	43.9	95	42.6	0	0	---	0.00	30.139 
06:10	43.9	43.9	43.9	95	42.6	0	0	---	0.00	30.139 
06:15	43.9	43.9	43.9	95	42.6	0	0	---	0.00	30.140 
06:20	43.8	43.8	43.8	95	42.5	0	0	---	0.00	30.140 
06:25	43.8	43.8	43.8	95	42.5	0	0	---	0.00	30.140 
06:30	43.6	43.6	43.6	95	42.3	0	0	---	0.00	30.145 
06:35	43.6	43.6	43.6	95	42.3	0	0	---	0.00	30.145 
06:40	43.6	43.6	43.6	95	42.3	0	1	292	0.00	30.145 
06:45	43.6	43.6	43.6	95	42.3	0	1	292	0.00	30.147 
06:50	43.6	43.6	43.6	95	42.3	0	0	---	0.00	30.147 
06:55	43.6	43.6	43.6	95	42.3	0	0	---	0.00	30.147 
07:00	43.6	43.6	43.6	95	42.3	0	0	---	0.00	30.148 
07:05	43.5	43.5	43.5	94	41.9	0	0	---	0.00	30.148 
07:10	43.5	43.5	43.5	94	41.9	0	1	292	0.00	30.148 
07:15	43.5	43.5	43.5	94	41.9	0	1	292	0.00	30.151 
07:20	43.5	43.5	43.5	94	41.9	0	1	292	0.00	30.151 
07:25	43.5	43.5	43.5	94	41.9	0	1	292	0.00	30.151 
07:30	43.6	43.6	43.6	94	42.0	0	0	---	0.00	30.154 
07:35	43.6	43.6	43.6	94	42.0	0	1	292	0.00	30.154 
07:40	43.8	43.8	43.8	94	42.2	0	1	292	0.00	30.154 
07:45	43.9	43.9	43.9	93	42.0	0	1	292	0.00	30.162 
07:50	44.1	44.1	44.1	93	42.2	0	1	292	0.00	30.162 
07:55	44.2	44.2	44.2	93	42.3	0	1	292	0.00	30.162 
08:00	44.5	44.5	44.5	92	42.3	0	0	---	0.00	30.164 
08:05	44.5	44.5	44.5	92	42.3	0	1	292	0.00	30.164 
08:10	44.6	44.6	44.6	91	42.1	0	1	292	0.00	30.164 
08:15	44.8	44.8	44.8	90	42.0	0	1	292	0.00	30.168 
08:20	45.2	45.2	45.2	90	42.4	0	1	292	0.00	30.168 
08:25	45.7	45.7	45.7	89	42.6	0	2	292	0.00	30.168 
08:30	46.1	46.1	46.1	88	42.7	0	1	292	0.00	30.169 
08:35	46.5	46.5	46.5	86	42.5	0	1	292	0.00	30.169 
08:40	46.8	46.8	46.8	84	42.2	0	1	292	0.00	30.169 
08:45	47.1	47.1	47.1	82	41.9	0	1	292	0.00	30.170 
08:50	47.6	47.6	47.6	81	42.1	0	1	292	0.00	30.170 
08:55	48.0	48.0	48.0	79	41.8	0	3	292	0.00	30.170 
09:00	48.6	48.6	48.6	78	42.1	0	2	292	0.00	30.170 
09:05	49.4	49.4	49.4	75	41.8	0	2	292	0.00	30.170 
09:10	49.9	49.9	49.9	71	40.9	0	2	292	0.00	30.170 
09:15	50.5	50.5	50.5	70	41.1	1	3	90	0.00	30.170 
09:20	51.4	51.4	51.4	71	42.3	0	2	68	0.00	30.170 
09:25	52.3	52.3	52.3	68	42.1	0	2	68	0.00	30.170 
09:30	52.6	52.6	52.6	66	41.6	0	3	248	0.00	30.168 
09:35	52.9	52.9	52.9	66	41.9	0	3	248	0.00	30.168 
09:40	53.5	53.5	53.5	64	41.6	0	3	90	0.00	30.168 
09:45	54.1	54.1	54.1	62	41.4	0	3	90	0.00	30.169 
09:50	54.4	54.4	54.4	61	41.2	0	2	90	0.00	30.169 
09:55	54.7	54.7	54.7	61	41.5	0	2	90	0.00	30.169 
10:00	55.1	55.1	55.1	59	41.0	0	2	90	0.00	30.163 
10:05	55.1	55.1	55.1	58	40.6	0	3	90	0.00	30.163 
10:10	55.6	55.6	55.6	58	41.1	1	4	270	0.00	30.163 
10:15	55.9	55.9	55.9	57	40.9	0	2	270	0.00	30.165 
10:20	56.3	56.3	56.3	57	41.3	1	3	292	0.00	30.165 
10:25	56.0	56.0	56.0	53	39.1	1	4	292	0.00	30.165 
10:30	55.9	55.9	55.9	56	40.4	1	5	270	0.00	30.169 
10:35	56.2	56.2	56.2	56	40.7	1	3	22	0.00	30.169 
10:40	56.7	56.7	56.7	52	39.3	2	5	112	0.00	30.169 
10:45	57.2	57.2	57.2	54	40.7	1	4	68	0.00	30.166 
10:50	57.3	57.3	57.3	55	41.3	1	3	68	0.00	30.166 
10:55	57.6	57.6	57.6	50	39.1	1	2	45	0.00	30.166 
11:00	58.3	58.3	58.3	52	40.8	1	4	112	0.00	30.165 
11:05	58.3	58.3	58.3	51	40.3	1	3	45	0.00	30.165 
11:10	58.0	58.0	58.0	50	39.5	1	3	292	0.00	30.165 
11:15	58.1	58.1	58.1	51	40.1	1	3	90	0.00	30.170 
11:20	58.3	58.3	58.3	49	39.2	1	2	0	0.00	30.170 
11:25	58.6	58.6	58.6	49	39.5	0	3	0	0.00	30.170 
11:30	58.3	58.3	58.3	44	36.5	1	5	292	0.00	30.170 
11:35	58.1	58.1	58.1	45	36.9	1	4	45	0.00	30.170 
11:40	58.3	58.3	58.3	41	34.7	1	10	22	0.00	30.170 
11:45	58.4	58.4	58.4	39	33.5	0	3	0	0.00	30.171 
11:50	59.0	59.0	59.0	45	37.7	1	5	22	0.00	30.171 
11:55	59.5	59.5	59.5	41	35.8	1	4	112	0.00	30.171 
12:00	59.3	59.3	59.3	40	35.0	1	2	338	0.00	30.168 
12:05	59.5	59.5	59.5	39	34.5	1	4	90	0.00	30.168 
12:10	59.8	59.8	59.8	37	33.5	1	6	90	0.00	30.168 
12:15	60.1	60.1	60.1	41	36.3	1	4	112	0.00	30.167 
12:20	59.9	59.9	59.9	35	32.2	1	4	292	0.00	30.167 
12:25	60.1	60.1	60.1	39	35.1	2	5	90	0.00	30.167 
12:30	60.5	60.5	60.5	39	35.4	1	4	112	0.00	30.167 
12:35	60.7	60.7	60.7	41	36.9	1	3	68	0.00	30.167 
12:40	60.4	60.4	60.4	36	33.3	0	2	68	0.00	30.167 
12:45	60.5	60.5	60.5	36	33.4	1	3	270	0.00	30.168 
12:50	60.5	60.5	60.5	34	32.0	1	2	292	0.00	30.168 
12:55	60.5	60.5	60.5	33	31.3	0	2	292	0.00	30.168 
13:00	60.2	60.2	60.2	33	31.0	1	6	270	0.00	30.171 
13:05	60.5	60.5	60.5	36	33.4	1	4	158	0.00	30.171 
13:10	61.2	61.2	61.2	37	34.7	1	4	292	0.00	30.171 
13:15	61.3	61.3	61.3	36	34.1	1	4	135	0.00	30.165 
13:20	61.3	61.3	61.3	29	28.8	0	2	270	0.00	30.165 
13:25	61.5	61.5	61.5	29	29.0	0	2	338	0.00	30.165 
13:30	61.8	61.8	61.8	33	32.4	0	2	315	0.00	30.163 
13:35	62.1	62.1	62.1	36	34.8	0	3	338	0.00	30.163 
13:40	62.4	62.4	62.4	30	30.6	1	4	270	0.00	30.163 
13:45	62.3	62.3	62.3	29	29.6	1	5	112	0.00	30.159 
13:50	62.1	62.1	62.1	28	28.6	1	3	45	0.00	30.159 
13:55	62.1	62.1	62.1	28	28.6	1	3	45	0.00	30.159 
14:00	62.3	62.3	62.3	36	35.0	1	4	112	0.00	30.160 
14:05	62.4	62.4	62.4	33	32.9	1	3	135	0.00	30.160 
14:10	62.6	62.6	62.6	32	32.3	2	4	112	0.00	30.160 
14:15	62.7	62.7	62.7	29	30.0	1	4	248	0.00	30.158 
14:20	62.4	62.4	62.4	31	31.4	1	4	45	0.00	30.158 
14:25	62.4	62.4	62.4	27	28.0	1	4	292	0.00	30.158 
14:30	62.4	62.4	62.4	27	28.0	1	4	292	0.00	30.159 
14:35	62.7	62.7	62.7	32	32.4	1	4	292	0.00	30.159 
14:40	62.6	62.6	62.6	28	29.0	1	4	22	0.00	30.159 
14:45	62.4	62.4	62.4	30	30.6	1	2	338	0.00	30.157 
14:50	62.6	62.6	62.6	32	32.3	1	3	0	0.00	30.157 
14:55	62.9	62.9	62.9	30	31.0	3	6	270	0.00	30.157 
15:00	63.2	63.2	63.2	29	30.4	2	4	248	0.00	30.153 
15:05	63.4	63.4	63.4	27	28.8	1	3	338	0.00	30.153 
15:10	63.2	63.2	63.2	31	32.1	1	4	315	0.00	30.153 
15:15	62.9	62.9	62.9	31	31.8	0	2	338	0.00	30.150 
15:20	63.4	63.4	63.4	29	30.6	1	2	338	0.00	30.150 
15:25	63.7	63.7	63.7	29	30.8	1	4	315	0.00	30.150 
15:30	64.0	64.0	64.0	28	30.2	2	5	270	0.00	30.150 
15:35	64.0	64.0	64.0	29	31.1	1	4	292	0.00	30.150 
15:40	64.2	64.2	64.2	30	32.1	1	4	45	0.00	30.150 
15:45	64.5	64.5	64.5	29	31.5	2	9	270	0.00	30.152 
15:50	64.5	64.5	64.5	29	31.5	2	5	270	0.00	30.152 
15:55	64.2	64.2	64.2	29	31.3	1	5	270	0.00	30.152 
16:00	63.5	63.5	63.5	31	32.3	1	5	248	0.00	30.152 
16:05	63.5	63.5	63.5	31	32.3	1	4	292	0.00	30.152 
16:10	63.7	63.7	63.7	31	32.5	2	4	270	0.00	30.152 
16:15	63.7	63.7	63.7	28	30.0	1	4	270	0.00	30.151 
16:20	62.6	62.6	62.6	27	28.2	2	4	315	0.00	30.151 
16:25	62.4	62.4	62.4	31	31.4	1	4	292	0.00	30.151 
16:30	62.7	62.7	62.7	28	29.1	1	3	315	0.00	30.152 
16:35	63.2	63.2	63.2	31	32.1	2	5	315	0.00	30.152 
16:40	63.1	63.1	63.1	32	32.8	1	4	0	0.00	30.152 
16:45	63.1	63.1	63.1	29	30.3	2	6	315	0.00	30.155 
16:50	62.4	62.4	62.4	31	31.4	2	5	270	0.00	30.155 
16:55	61.6	61.6	61.6	31	30.7	2	4	248	0.00	30.155 
17:00	60.9	60.9	60.9	31	30.1	1	3	315	0.00	30.158 
17:05	61.0	61.0	61.0	35	33.2	0	2	315	0.00	30.158 
17:10	61.2	61.2	61.2	32	31.1	1	6	315	0.00	30.158 
17:15	60.9	60.9	60.9	33	31.6	1	3	0	0.00	30.161 
17:20	60.9	60.9	60.9	35	33.1	0	3	270	0.00	30.161 
17:25	60.9	60.9	60.9	33	31.6	1	2	338	0.00	30.161 
17:30	60.7	60.7	60.7	34	32.2	1	4	315	0.00	30.161 
17:35	60.9	60.9	60.9	34	32.3	1	5	270	0.00	30.161 
17:40	61.5	61.5	61.5	35	33.6	2	5	270	0.00	30.161 
17:45	62.1	62.1	62.1	34	33.4	1	5	292	0.00	30.159 
17:50	61.6	61.6	61.6	34	33.0	1	3	292	0.00	30.159 
17:55	61.8	61.8	61.8	32	31.6	1	6	0	0.00	30.159 
18:00	61.6	61.6	61.6	34	33.0	1	4	315	0.00	30.161 
18:05	61.0	61.0	61.0	33	31.7	1	4	315	0.00	30.161 
18:10	60.9	60.9	60.9	37	34.5	0	3	315	0.00	30.161 
18:15	61.0	61.0	61.0	32	30.9	1	5	315	0.00	30.165 
18:20	60.5	60.5	60.5	32	30.5	1	3	315	0.00	30.165 
18:25	61.0	61.0	61.0	32	30.9	2	6	315	0.00	30.165 
18:30	61.0	61.0	61.0	35	33.2	1	3	315	0.00	30.168 
18:35	60.9	60.9	60.9	29	28.4	1	4	270	0.00	30.168 
18:40	60.9	60.9	60.9	34	32.3	1	5	270	0.00	30.168 
18:45	60.7	60.7	60.7	34	32.2	2	4	270	0.00	30.174 
18:50	60.4	60.4	60.4	34	31.9	1	4	292	0.00	30.174 
18:55	59.6	59.6	59.6	36	32.6	1	4	292	0.00	30.174 
19:00	59.2	59.2	59.2	34	30.8	1	5	270	0.00	30.175 
19:05	59.5	59.5	59.5	37	33.2	1	3	270	0.00	30.175 
19:10	59.6	59.6	59.6	35	31.9	1	2	270	0.00	30.175 
19:15	59.5	59.5	59.5	37	33.2	1	4	0	0.00	30.171 
19:20	59.3	59.3	59.3	35	31.7	1	3	315	0.00	30.171 
19:25	59.2	59.2	59.2	35	31.6	1	5	292	0.00	30.171 
19:30	59.0	59.0	59.0	35	31.4	2	5	292	0.00	30.176 
19:35	58.6	58.6	58.6	36	31.7	2	5	270	0.00	30.176 
19:40	58.3	58.3	58.3	36	31.5	1	4	270	0.00	30.176 
19:45	58.3	58.3	58.3	36	31.5	0	2	315	0.00	30.177 
19:50	58.3	58.3	58.3	38	32.8	1	4	292	0.00	30.177 
19:55	58.3	58.3	58.3	38	32.8	0	3	292	0.00	30.177 
20:00	58.1	58.1	58.1	37	32.0	1	3	292	0.00	30.177 
20:05	58.1	58.1	58.1	37	32.0	1	4	292	0.00	30.177 
20:10	57.8	57.8	57.8	37	31.7	1	4	315	0.00	30.177 
20:15	57.3	57.3	57.3	39	32.6	1	2	315	0.00	30.176 
20:20	57.0	57.0	57.0	39	32.3	1	3	315	0.00	30.176 
20:25	56.7	56.7	56.7	39	32.0	1	5	270	0.00	30.176 
20:30	56.5	56.5	56.5	40	32.5	0	2	270	0.00	30.178 
20:35	56.2	56.2	56.2	40	32.2	0	2	270	0.00	30.178 
20:40	56.0	56.0	56.0	41	32.6	0	2	270	0.00	30.178 
20:45	55.7	55.7	55.7	42	33.0	1	3	270	0.00	30.179 
20:50	55.4	55.4	55.4	42	32.7	1	3	292	0.00	30.179 
20:55	55.3	55.3	55.3	43	33.2	0	2	270	0.00	30.179 
21:00	55.0	55.0	55.0	43	32.9	0	1	270	0.00	30.180 
21:05	54.7	54.7	54.7	43	32.6	0	1	270	0.00	30.180 
21:10	54.4	54.4	54.4	44	32.9	0	1	270	0.00	30.180 
21:15	54.2	54.2	54.2	45	33.3	0	1	270	0.00	30.184 
21:20	53.9	53.9	53.9	45	33.1	0	1	270	0.00	30.184 
21:25	53.6	53.6	53.6	45	32.8	0	1	270	0.00	30.184 
21:30	53.5	53.5	53.5	46	33.2	0	1	270	0.00	30.185 
21:35	53.2	53.2	53.2	46	33.0	0	0	---	0.00	30.185 
21:40	52.8	52.8	52.8	47	33.1	0	0	---	0.00	30.185 
21:45	52.6	52.6	52.6	47	32.9	0	0	---	0.00	30.188 
21:50	52.3	52.3	52.3	48	33.2	0	0	---	0.00	30.188 
21:55	52.0	52.0	52.0	48	32.9	0	0	---	0.00	30.188 
22:00	51.9	51.9	51.9	48	32.8	0	1	270	0.00	30.191 
22:05	51.6	51.6	51.6	49	33.1	0	0	---	0.00	30.191 
22:10	51.3	51.3	51.3	49	32.8	0	0	---	0.00	30.191 
22:15	51.0	51.0	51.0	51	33.5	0	0	---	0.00	30.189 
22:20	50.5	50.5	50.5	52	33.5	0	0	---	0.00	30.189 
22:25	50.2	50.2	50.2	52	33.3	0	0	---	0.00	30.189 
22:30	49.8	49.8	49.8	53	33.4	0	0	---	0.00	30.191 
22:35	49.4	49.4	49.4	53	33.0	0	0	---	0.00	30.191 
22:40	48.8	48.8	48.8	56	33.8	0	0	---	0.00	30.191 
22:45	48.2	48.2	48.2	56	33.2	0	0	---	0.00	30.192 
22:50	47.7	47.7	47.7	57	33.2	0	0	---	0.00	30.192 
22:55	47.4	47.4	47.4	58	33.4	0	0	---	0.00	30.192 
23:00	47.0	47.0	47.0	59	33.4	0	0	---	0.00	30.194 
23:05	46.7	46.7	46.7	60	33.6	0	0	---	0.00	30.194 
23:10	46.4	46.4	46.4	61	33.7	0	0	---	0.00	30.194 
23:15	46.1	46.1	46.1	61	33.4	0	0	---	0.00	30.192 
23:20	46.0	46.0	46.0	61	33.3	0	0	---	0.00	30.192 
23:25	45.8	45.8	45.8	61	33.1	0	0	---	0.00	30.192 
23:30	45.8	45.8	45.8	59	32.3	0	0	---	0.00	30.192 
23:35	46.0	46.0	46.0	58	32.1	0	0	---	0.00	30.192 
23:40	45.8	45.8	45.8	57	31.4	0	0	---	0.00	30.192 
23:45	45.8	45.8	45.8	57	31.4	0	0	---	0.00	30.190 
23:50	45.7	45.7	45.7	58	31.8	0	0	---	0.00	30.190 
23:55	45.7	45.7	45.7	56	30.9	0	0	---	0.00	30.190 

CoCoRaHS
IN-AL-39
A2 Web Hosting
Creative Commons License
GoDaddy
search engine by freefind advanced

loaded 2018-11-20 03:14:48 • last modified 2010-11-18 10:43:29
Privacy PolicyDisclaimer
• wx.awcolley.com is powered by PmWiki v.2002016 •
• all content (unless otherwise noted) © 2018 A W Colley